This is the latest recevied weather packets stored in our database for station/object K9ABJ. If no packets are shown the sender has not sent any weather packets the latest 10 day(s).
| Time | Temp. | Humidity | Pressure | Rain* | Wind** | Luminosity | Snow |
|---|---|---|---|---|---|---|---|
| 1788538852 | 30.56° C | 76% | 1016.6 hPa | 0 mm | - | 294 W/m² | - |
| 1788538552 | 30° C | 76% | 1016.7 hPa | 0 mm | - | 469 W/m² | - |
| 1788538247 | 31.11° C | 74% | 1016.5 hPa | 0 mm | - | 415 W/m² | - |
| 1788537942 | 31.11° C | 76% | 1016.3 hPa | 0 mm | - | 596 W/m² | - |
| 1788537639 | 31.11° C | 73% | 1016.3 hPa | 0 mm | - | 493 W/m² | - |
| 1788537337 | 31.67° C | 73% | 1016.1 hPa | 0 mm | - | 568 W/m² | - |
| 1788537032 | 31.67° C | 72% | 1016.4 hPa | 0 mm | - | 198 W/m² | - |
| 1788536746 | 31.67° C | 74% | 1016.3 hPa | 0 mm | - | 223 W/m² | - |
| 1788536421 | 32.78° C | 71% | 1016.4 hPa | 0 mm | - | 218 W/m² | - |
| 1788536120 | 33.33° C | 71% | 1016.1 hPa | 0 mm | - | 223 W/m² | - |
| 1788535817 | 31.11° C | 74% | 1016 hPa | 0 mm | - | 516 W/m² | - |
| 1788535512 | 31.11° C | 74% | 1016 hPa | 0 mm | - | 237 W/m² | - |
| 1788535222 | 30.56° C | 75% | 1015.9 hPa | 0 mm | - | 248 W/m² | - |
| 1788534903 | 31.67° C | 73% | 1016 hPa | 0 mm | - | 303 W/m² | - |
| 1788534602 | 33.89° C | 67% | 1015.8 hPa | 0 mm | - | 506 W/m² | - |
| 1788534297 | 33.33° C | 67% | 1015.8 hPa | 0 mm | - | 477 W/m² | - |
| 1788533996 | 32.78° C | 69% | 1015.7 hPa | 0 mm | - | 437 W/m² | - |
| 1788533692 | 30.56° C | 73% | 1015.9 hPa | 0 mm | - | 427 W/m² | - |
| 1788533387 | 31.67° C | 71% | 1015.5 hPa | 0 mm | - | 510 W/m² | - |
| 1788533083 | 33.33° C | 67% | 1015.7 hPa | 0 mm | - | 338 W/m² | - |
| 1788532778 | 30° C | 76% | 1015.8 hPa | 0 mm | - | 576 W/m² | - |
| 1788532475 | 30° C | 75% | 1015.7 hPa | 0 mm | - | 276 W/m² | - |
| 1788532176 | 30.56° C | 73% | 1015.6 hPa | 0 mm | - | 317 W/m² | - |
| 1788531867 | 30.56° C | 76% | 1015.6 hPa | 0 mm | - | 433 W/m² | - |
| 1788531567 | 28.89° C | 81% | 1015.6 hPa | 0 mm | - | 314 W/m² | - |
* Rain latest hour (hover to see other rain measurements)
** Current wind speed in m/s (hover to see current wind gust speed)